LIPU METAR and TAF | Updated Today

LIPU METAR

Padova Airport

Observation time: 41 min. ago

LIPU 200650Z VRB01KT CAVOK 21/12 Q1029

Need help? Read our tutorial on how to read METARs or read the parsed version below.

Padova Airport (LIPU) METAR

  • Weather conditions on Fri, 20 May 2022 06:50:00 +0000 (41 min. ago):
  • Present conditions: Dry
  • Clouds: Clear skies
  • Visibility: Greater than 10 km
  • Wind: Variable at 1 knots
  • Temperature: 21 celsius
  • Dew point: 12 celsius
  • Pressure: 1029 millibars
  • Remarks: None


Useful to know...

  • Codes: LIPU/QPA
  • Airport elevation: 44ft
  • Municipality: Padova
  • Country: Italy
  • Continent: Europe